Agate, Nebraska
Current Conditions -  °F | °C
As of 2:53 AM on Saturday 29 Nov 2014 (Local Time) from KTOR Reporting Station
Clear Clear  
Wind Chill: 43°   Ceiling: Unl
Heat Index: 48°   Visibility: 10mi
Dew Point: 17°   Wind: 12mph
Humidity: 29%   Direction: 270°W
Pressure: 29.62"   Gusts: NA
Location:  42.42°N, 103.79°W
Report Text: KTOR 290953Z AUTO 27010KT 10SM CLR 09/M08 A2962 RMK AO2 SLP000 T00891083
Loading
Personal Weather Stations






























Interactive Weather Map New forecast layout! Learn more

10-Day Weather Forecast

Advertisements
Track Severe Weather on mobile